Time;durP1;ratioP1;P1;durP2;ratioP2;P2;SDS_P1;SDS_P2;PMS_P1;PMS_P2;Temp;Humidity;BMP_temperature;BMP_pressure;BME280_temperature;BME280_humidity;BME280_pressure;Samples;Min_cycle;Max_cycle;Signal;HPM_P1;HPM_P2
2022/11/10 00:00:07;;;;;;;20.20;3.90;;;9.30;99.90;;;;;;5001547;28;20660;-64
2022/11/10 00:02:36;;;;;;;15.57;3.80;;;9.30;99.90;;;;;;5002199;28;20277;-65
2022/11/10 00:05:05;;;;;;;7.60;3.70;;;9.30;99.90;;;;;;5023966;28;20182;-62
2022/11/10 00:07:35;;;;;;;13.83;4.13;;;9.40;99.90;;;;;;4992927;28;20197;-62
2022/11/10 00:10:04;;;;;;;15.03;3.70;;;9.40;99.90;;;;;;4998836;28;20251;-63
2022/11/10 00:12:33;;;;;;;13.97;4.23;;;9.40;99.90;;;;;;5023535;28;20206;-64
2022/11/10 00:17:47;;;;;;;14.90;3.80;;;9.40;99.90;;;;;;4995718;28;20272;-64
2022/11/10 00:20:16;;;;;;;15.67;4.03;;;9.40;99.90;;;;;;5012103;28;20205;-64
2022/11/10 00:22:45;;;;;;;13.20;3.63;;;9.40;99.90;;;;;;5105811;28;20182;-64
2022/11/10 00:25:14;;;;;;;14.00;3.50;;;9.40;99.90;;;;;;5006315;28;20198;-64
2022/11/10 00:27:42;;;;;;;13.20;3.93;;;9.50;99.90;;;;;;4992395;28;20198;-64
2022/11/10 00:30:11;;;;;;;15.13;3.57;;;9.50;99.90;;;;;;5007701;28;20218;-64
2022/11/10 00:32:39;;;;;;;20.60;4.37;;;9.60;99.90;;;;;;5000702;28;20217;-64
2022/11/10 00:35:08;;;;;;;14.43;3.80;;;9.70;99.90;;;;;;5009455;28;20214;-64
2022/11/10 00:37:37;;;;;;;15.40;4.13;;;9.70;99.90;;;;;;5005449;28;20702;-64
2022/11/10 00:40:08;;;;;;;10.97;4.60;;;9.80;99.90;;;;;;4999260;28;20285;-64
2022/11/10 00:42:36;;;;;;;15.47;3.57;;;9.90;99.90;;;;;;4991665;28;20650;-64
2022/11/10 00:45:05;;;;;;;15.00;3.60;;;9.90;99.90;;;;;;5004654;28;20198;-64
2022/11/10 00:47:34;;;;;;;19.90;4.07;;;10.00;99.90;;;;;;5003557;28;20619;-64
2022/11/10 00:50:02;;;;;;;10.53;3.67;;;10.00;99.90;;;;;;4997796;28;20884;-64
2022/11/10 00:52:30;;;;;;;16.67;3.53;;;10.00;99.90;;;;;;4991458;28;20202;-64
2022/11/10 00:54:59;;;;;;;12.90;3.37;;;10.00;99.90;;;;;;4998834;28;20580;-64
2022/11/10 00:57:29;;;;;;;13.20;3.63;;;10.00;99.90;;;;;;4996739;28;20195;-64
2022/11/10 00:59:57;;;;;;;19.00;4.00;;;10.00;99.90;;;;;;5007557;28;20275;-64
2022/11/10 01:02:26;;;;;;;13.13;3.60;;;9.90;99.90;;;;;;5011196;28;20201;-64
2022/11/10 01:04:54;;;;;;;20.40;3.93;;;9.90;99.90;;;;;;5042671;28;20194;-64
2022/11/10 01:07:22;;;;;;;14.80;3.70;;;9.80;99.90;;;;;;5008255;28;20741;-64
2022/11/10 01:09:51;;;;;;;11.33;3.80;;;9.80;99.90;;;;;;4991344;28;20187;-64
2022/11/10 01:12:19;;;;;;;17.23;4.30;;;9.80;99.90;;;;;;4991250;28;20203;-64
2022/11/10 01:14:49;;;;;;;12.43;3.87;;;9.70;99.90;;;;;;4994307;28;20214;-64
2022/11/10 01:17:18;;;;;;;14.10;3.70;;;9.70;99.90;;;;;;4995061;28;20202;-64
2022/11/10 01:19:46;;;;;;;8.93;3.83;;;9.70;99.90;;;;;;4996329;28;20779;-64
2022/11/10 01:22:14;;;;;;;9.40;3.53;;;9.70;99.90;;;;;;4991505;28;20202;-64
2022/11/10 01:24:43;;;;;;;23.87;3.70;;;9.70;99.90;;;;;;4995494;28;20194;-64
2022/11/10 01:27:11;;;;;;;13.87;3.43;;;9.60;99.90;;;;;;5010575;28;20193;-64
2022/11/10 01:29:40;;;;;;;13.20;3.47;;;9.60;99.90;;;;;;5021870;28;20202;-64
2022/11/10 01:32:09;;;;;;;11.93;3.57;;;9.60;99.90;;;;;;4994578;28;20233;-64
2022/11/10 01:34:38;;;;;;;16.67;4.00;;;9.60;99.90;;;;;;5021549;28;20217;-64
2022/11/10 01:37:06;;;;;;;15.07;3.60;;;9.50;99.90;;;;;;5004236;28;20691;-64
2022/11/10 01:39:35;;;;;;;16.30;3.93;;;9.40;99.90;;;;;;4993020;28;20285;-64
2022/11/10 01:42:04;;;;;;;14.73;3.90;;;9.30;99.90;;;;;;4997045;28;20564;-64
2022/11/10 01:44:34;;;;;;;18.40;4.10;;;9.30;99.90;;;;;;5003789;28;20194;-64
2022/11/10 01:47:03;;;;;;;16.37;4.27;;;9.20;99.90;;;;;;4996176;28;20209;-64
2022/11/10 01:49:34;;;;;;;19.00;4.53;;;9.20;99.90;;;;;;5001303;28;20202;-64
2022/11/10 01:52:07;;;;;;;15.83;4.33;;;9.20;99.90;;;;;;4993646;28;20190;-64
2022/11/10 01:54:39;;;;;;;11.27;3.73;;;9.10;99.90;;;;;;5000139;28;20195;-64
2022/11/10 01:57:10;;;;;;;18.97;4.10;;;9.10;99.90;;;;;;4999921;28;20202;-64
2022/11/10 01:59:45;;;;;;;13.40;4.10;;;9.10;99.90;;;;;;5008293;28;20644;-64
2022/11/10 02:02:24;;;;;;;19.40;4.37;;;9.10;99.90;;;;;;5002177;28;20561;-64
2022/11/10 02:05:15;;;;;;;19.83;4.60;;;9.10;99.90;;;;;;5002677;28;20243;-64
2022/11/10 02:07:48;;;;;;;15.23;4.37;;;9.10;99.90;;;;;;5002638;28;20209;-64
2022/11/10 02:10:19;;;;;;;19.77;4.60;;;9.00;99.90;;;;;;5012483;28;20712;-64
2022/11/10 02:12:48;;;;;;;15.50;4.40;;;9.00;99.90;;;;;;5009071;28;20198;-64
2022/11/10 02:15:18;;;;;;;18.80;4.80;;;9.00;99.90;;;;;;4993844;28;20319;-64
2022/11/10 02:17:48;;;;;;;17.93;4.87;;;9.00;99.90;;;;;;5005325;28;20565;-64
2022/11/10 02:20:20;;;;;;;14.10;4.10;;;9.00;99.90;;;;;;5009625;28;20518;-64
2022/11/10 02:22:50;;;;;;;21.93;4.23;;;9.00;99.90;;;;;;4993823;28;20191;-64
2022/11/10 02:25:23;;;;;;;15.37;5.00;;;9.00;99.90;;;;;;5003841;28;20203;-64
2022/11/10 02:27:52;;;;;;;13.53;4.50;;;8.90;99.90;;;;;;5009958;28;20209;-64
2022/11/10 02:30:20;;;;;;;15.37;4.53;;;8.90;99.90;;;;;;5029198;28;20215;-64
2022/11/10 02:32:54;;;;;;;19.03;4.67;;;8.90;99.90;;;;;;4997301;28;20606;-64
2022/11/10 02:35:25;;;;;;;14.77;4.47;;;8.90;99.90;;;;;;5008995;28;20218;-64
2022/11/10 02:37:59;;;;;;;16.03;4.43;;;8.90;99.90;;;;;;4997549;28;20276;-64
2022/11/10 02:40:46;;;;;;;18.67;4.47;;;8.90;99.90;;;;;;5018951;28;20205;-64
2022/11/10 02:43:18;;;;;;;13.10;4.30;;;8.90;99.90;;;;;;5008975;28;20194;-64
2022/11/10 02:45:47;;;;;;;17.30;4.10;;;8.90;99.90;;;;;;5000566;28;20222;-64
2022/11/10 02:48:16;;;;;;;19.93;4.47;;;8.90;99.90;;;;;;4999509;28;20546;-64
2022/11/10 02:50:44;;;;;;;12.77;4.03;;;8.80;99.90;;;;;;4994591;28;20226;-64
2022/11/10 02:53:14;;;;;;;15.13;3.97;;;8.80;99.90;;;;;;5024714;28;20187;-64
2022/11/10 02:55:42;;;;;;;20.77;4.27;;;8.80;99.90;;;;;;5012124;28;20224;-64
2022/11/10 02:58:11;;;;;;;23.70;4.50;;;8.80;99.90;;;;;;4996853;28;20687;-64
2022/11/10 03:00:39;;;;;;;10.77;3.90;;;8.80;99.90;;;;;;5008195;28;20190;-64
2022/11/10 03:03:08;;;;;;;16.50;5.20;;;8.90;99.90;;;;;;4995049;28;20210;-64
2022/11/10 03:05:36;;;;;;;17.57;4.43;;;8.90;99.90;;;;;;5011137;28;20190;-64
2022/11/10 03:08:04;;;;;;;14.87;4.57;;;9.00;99.90;;;;;;5003290;28;20676;-64
2022/11/10 03:10:34;;;;;;;23.33;4.63;;;9.00;99.90;;;;;;5006762;28;20283;-64
2022/11/10 03:13:03;;;;;;;15.10;4.33;;;9.00;99.90;;;;;;5004978;28;20598;-64
2022/11/10 03:15:31;;;;;;;12.43;3.93;;;9.10;99.90;;;;;;5015020;28;20206;-64
2022/11/10 03:18:04;;;;;;;13.60;4.00;;;9.10;99.90;;;;;;4994510;28;20195;-64
2022/11/10 03:20:32;;;;;;;13.10;3.87;;;9.10;99.90;;;;;;4992786;28;20637;-64
2022/11/10 03:23:01;;;;;;;15.23;4.63;;;9.10;99.90;;;;;;5009281;28;20194;-64
2022/11/10 03:25:30;;;;;;;12.03;3.90;;;9.00;99.90;;;;;;5019164;28;20201;-64
2022/11/10 03:28:00;;;;;;;14.03;4.40;;;9.00;99.90;;;;;;5006974;28;20225;-64
2022/11/10 03:30:28;;;;;;;16.83;3.83;;;9.00;99.90;;;;;;4996617;28;20221;-64
2022/11/10 03:32:56;;;;;;;15.43;3.97;;;8.90;99.90;;;;;;4997913;28;20219;-64
2022/11/10 03:35:25;;;;;;;17.80;4.53;;;9.00;99.90;;;;;;4991785;28;20260;-64
2022/11/10 03:37:53;;;;;;;24.10;4.33;;;8.90;99.90;;;;;;5003812;28;20255;-64
2022/11/10 03:40:22;;;;;;;13.80;3.83;;;8.90;99.90;;;;;;5007552;28;20199;-64
2022/11/10 03:42:50;;;;;;;20.53;4.40;;;8.90;99.90;;;;;;4997902;28;20195;-64
2022/11/10 03:45:20;;;;;;;18.00;4.27;;;8.90;99.90;;;;;;5007288;28;20194;-64
2022/11/10 03:47:49;;;;;;;21.33;4.03;;;8.80;99.90;;;;;;5031682;28;20202;-64
2022/11/10 03:50:18;;;;;;;17.83;4.47;;;8.80;99.90;;;;;;4992924;28;20202;-64
2022/11/10 03:52:47;;;;;;;18.40;4.57;;;8.80;99.90;;;;;;5005383;28;20269;-64
2022/11/10 03:55:18;;;;;;;16.37;4.37;;;8.80;99.90;;;;;;5021086;28;20214;-64
2022/11/10 03:57:47;;;;;;;20.27;4.20;;;8.70;99.90;;;;;;5002324;28;20194;-64
2022/11/10 04:00:16;;;;;;;13.13;4.30;;;8.70;99.90;;;;;;4998375;28;20717;-64
2022/11/10 04:03:05;;;;;;;16.33;4.13;;;8.70;99.90;;;;;;5013251;28;20201;-64
2022/11/10 04:11:06;;;;;;;20.60;3.87;;;8.60;99.90;;;;;;4994381;28;20198;-64
2022/11/10 04:17:01;;;;;;;13.57;4.17;;;8.60;99.90;;;;;;4999933;28;20222;-64
2022/11/10 04:20:11;;;;;;;15.17;3.87;;;8.70;99.90;;;;;;4998007;28;20258;-64
2022/11/10 04:23:26;;;;;;;13.27;3.80;;;8.80;99.90;;;;;;4995541;28;20247;-64
2022/11/10 04:26:37;;;;;;;18.63;4.07;;;8.80;99.90;;;;;;5011870;28;20259;-64
2022/11/10 04:29:46;;;;;;;17.57;3.90;;;8.80;99.90;;;;;;5002341;28;20532;-64
2022/11/10 04:32:54;;;;;;;19.13;4.23;;;8.80;99.90;;;;;;4993691;28;20684;-64
2022/11/10 04:36:09;;;;;;;22.43;4.20;;;8.70;99.90;;;;;;5002356;28;20326;-64
2022/11/10 04:39:18;;;;;;;14.13;3.80;;;8.80;99.90;;;;;;4999965;28;20719;-64
2022/11/10 04:42:26;;;;;;;17.77;4.03;;;8.70;99.90;;;;;;4998800;28;20239;-64
2022/11/10 04:45:34;;;;;;;20.73;3.90;;;8.60;99.90;;;;;;5010162;28;20206;-64
2022/11/10 04:48:43;;;;;;;16.23;4.00;;;8.60;99.90;;;;;;4999641;28;20642;-64
2022/11/10 04:51:52;;;;;;;14.23;3.63;;;8.60;99.90;;;;;;5042875;28;20209;-64
2022/11/10 04:55:01;;;;;;;19.53;3.97;;;8.60;99.90;;;;;;4991772;28;20194;-64
2022/11/10 04:58:10;;;;;;;16.17;3.90;;;8.50;99.90;;;;;;5005274;28;20261;-64
2022/11/10 05:01:21;;;;;;;16.20;3.90;;;8.50;99.90;;;;;;5004717;28;20242;-64
2022/11/10 05:04:29;;;;;;;20.53;3.87;;;8.50;99.90;;;;;;5008368;28;20225;-64
2022/11/10 05:07:39;;;;;;;21.60;3.90;;;8.50;99.90;;;;;;4999948;28;20246;-64
2022/11/10 05:10:47;;;;;;;21.83;4.60;;;8.50;99.90;;;;;;4991076;28;20288;-64
2022/11/10 05:13:55;;;;;;;20.23;4.00;;;8.50;99.90;;;;;;5001025;28;20254;-64
2022/11/10 05:17:03;;;;;;;20.93;3.63;;;8.50;99.90;;;;;;5009220;28;20218;-64
2022/11/10 05:19:47;;;;;;;19.20;3.97;;;8.50;99.90;;;;;;4971113;28;20235;-64
2022/11/10 05:22:18;;;;;;;18.70;4.20;;;8.40;99.90;;;;;;5059691;27;20240;-64
2022/11/10 05:24:48;;;;;;;14.67;4.03;;;8.50;99.90;;;;;;4974025;28;20257;-64
2022/11/10 05:27:16;;;;;;;16.97;3.80;;;8.50;99.90;;;;;;4991245;28;20541;-64
2022/11/10 05:29:44;;;;;;;15.77;3.97;;;8.40;99.90;;;;;;4979831;28;20560;-64
2022/11/10 05:32:13;;;;;;;18.27;4.60;;;8.40;99.90;;;;;;4980344;28;20194;-64
2022/11/10 05:34:41;;;;;;;17.33;4.37;;;8.50;99.90;;;;;;4989609;28;20201;-64
2022/11/10 05:37:10;;;;;;;16.13;3.93;;;8.40;99.90;;;;;;4985868;28;20735;-64
2022/11/10 05:39:39;;;;;;;17.30;3.90;;;8.40;99.90;;;;;;4981771;28;20192;-64
2022/11/10 05:42:08;;;;;;;22.23;4.70;;;8.30;99.90;;;;;;4988199;28;20679;-64
2022/11/10 05:44:36;;;;;;;25.43;4.77;;;8.30;99.90;;;;;;4986594;28;20219;-64
2022/11/10 05:47:05;;;;;;;15.37;3.90;;;8.30;99.90;;;;;;4977642;28;20286;-64
2022/11/10 05:49:34;;;;;;;20.33;4.33;;;8.30;99.90;;;;;;4972440;28;20260;-64
2022/11/10 05:52:02;;;;;;;22.73;4.53;;;8.30;99.90;;;;;;5017800;28;20198;-64
2022/11/10 05:54:30;;;;;;;21.97;4.30;;;8.20;99.90;;;;;;4984877;28;20200;-64
2022/11/10 05:56:59;;;;;;;15.90;3.87;;;8.20;99.90;;;;;;4982835;28;20222;-64
2022/11/10 05:59:28;;;;;;;19.67;4.40;;;8.20;99.90;;;;;;4984126;28;20201;-64
2022/11/10 06:01:59;;;;;;;17.47;4.60;;;8.20;99.90;;;;;;4980922;28;20207;-64
2022/11/10 06:04:27;;;;;;;20.20;4.50;;;8.20;99.90;;;;;;4984171;28;20557;-64
2022/11/10 06:07:15;;;;;;;22.50;4.73;;;8.30;99.90;;;;;;4989459;28;20553;-64
2022/11/10 06:09:44;;;;;;;20.03;4.10;;;8.30;99.90;;;;;;4979390;28;20199;-64
2022/11/10 06:12:12;;;;;;;21.83;4.73;;;8.30;99.90;;;;;;4979145;28;20555;-64
2022/11/10 06:14:42;;;;;;;21.23;4.93;;;8.20;99.90;;;;;;4978221;28;20203;-64
2022/11/10 06:17:11;;;;;;;18.03;4.33;;;8.20;99.90;;;;;;5004564;28;20215;-64
2022/11/10 06:19:39;;;;;;;17.67;4.47;;;8.20;99.90;;;;;;4974753;28;20693;-64
2022/11/10 06:22:07;;;;;;;19.47;4.47;;;8.20;99.90;;;;;;4978653;28;20199;-64
2022/11/10 06:24:36;;;;;;;22.93;4.50;;;8.10;99.90;;;;;;4985796;28;20753;-64
2022/11/10 06:27:04;;;;;;;20.83;4.70;;;8.20;99.90;;;;;;5006042;28;20207;-64
2022/11/10 06:29:32;;;;;;;21.63;4.83;;;8.20;99.90;;;;;;4985515;28;20223;-64
2022/11/10 06:32:02;;;;;;;15.17;4.80;;;8.20;99.90;;;;;;4974649;28;20196;-64
2022/11/10 06:34:31;;;;;;;17.00;4.77;;;8.20;99.90;;;;;;4989737;28;20553;-64
2022/11/10 06:36:59;;;;;;;16.37;4.47;;;8.20;99.90;;;;;;4980042;28;20211;-64
2022/11/10 06:39:28;;;;;;;15.93;4.80;;;8.20;99.90;;;;;;4990890;28;20204;-64
2022/11/10 06:41:56;;;;;;;12.37;4.30;;;8.20;99.90;;;;;;4982581;28;20564;-64
2022/11/10 06:44:24;;;;;;;19.00;4.70;;;8.20;99.90;;;;;;4989283;28;20190;-64
2022/11/10 06:46:53;;;;;;;16.23;4.63;;;8.10;99.90;;;;;;4990538;28;20199;-64
2022/11/10 06:49:25;;;;;;;22.90;4.90;;;8.10;99.90;;;;;;4987808;28;20241;-64
2022/11/10 06:51:53;;;;;;;18.33;5.20;;;8.10;99.90;;;;;;4985662;28;20223;-64
2022/11/10 06:54:21;;;;;;;15.20;5.30;;;8.10;99.90;;;;;;4985191;28;20199;-64
2022/11/10 06:56:50;;;;;;;24.07;5.17;;;8.10;99.90;;;;;;4999606;28;20200;-64
2022/11/10 06:59:20;;;;;;;18.17;4.97;;;8.10;99.90;;;;;;4977284;28;20562;-64
2022/11/10 07:01:48;;;;;;;23.07;5.30;;;8.10;99.90;;;;;;4979408;28;20211;-64
2022/11/10 07:04:17;;;;;;;24.57;5.10;;;8.10;99.90;;;;;;4981399;28;20226;-64
2022/11/10 07:06:49;;;;;;;19.27;5.37;;;8.20;99.90;;;;;;4983900;28;20595;-64
2022/11/10 07:09:18;;;;;;;19.67;5.03;;;8.20;99.90;;;;;;4991342;28;20213;-64
2022/11/10 07:11:46;;;;;;;26.83;6.17;;;8.20;99.90;;;;;;4991356;28;20240;-64
2022/11/10 07:14:15;;;;;;;16.93;4.70;;;8.20;99.90;;;;;;4992624;28;20205;-64
2022/11/10 07:16:43;;;;;;;17.53;4.50;;;8.20;99.90;;;;;;5022990;28;20231;-64
2022/11/10 07:19:12;;;;;;;22.63;4.67;;;8.20;99.90;;;;;;4992485;28;20227;-64
2022/11/10 07:21:41;;;;;;;25.17;5.13;;;8.20;99.90;;;;;;4992442;28;20198;-64
2022/11/10 07:24:11;;;;;;;14.10;4.97;;;8.20;99.90;;;;;;4986985;28;20191;-64
2022/11/10 07:26:40;;;;;;;20.50;5.13;;;8.20;99.90;;;;;;5014629;28;20234;-64
2022/11/10 07:29:08;;;;;;;22.13;5.30;;;8.30;99.90;;;;;;4973290;28;20192;-64
2022/11/10 07:31:36;;;;;;;16.10;4.57;;;8.30;99.90;;;;;;4990622;28;20665;-64
2022/11/10 07:34:04;;;;;;;17.33;4.50;;;8.30;99.90;;;;;;4990991;28;20202;-64
2022/11/10 07:36:32;;;;;;;22.17;5.53;;;8.30;99.90;;;;;;4991541;28;20210;-64
2022/11/10 07:39:01;;;;;;;18.77;5.30;;;8.40;99.90;;;;;;4992092;28;20241;-64
2022/11/10 07:41:31;;;;;;;20.30;5.00;;;8.40;99.90;;;;;;4980891;28;20661;-64
2022/11/10 07:43:59;;;;;;;19.33;4.93;;;8.50;99.90;;;;;;4973269;28;20207;-64
2022/11/10 07:46:27;;;;;;;21.23;4.90;;;8.50;99.90;;;;;;4991166;28;20629;-64
2022/11/10 07:48:55;;;;;;;24.33;6.13;;;8.60;99.90;;;;;;4978522;28;20196;-64
2022/11/10 07:51:25;;;;;;;25.47;5.23;;;8.60;99.90;;;;;;4972632;28;20188;-64
2022/11/10 07:53:54;;;;;;;22.10;5.17;;;8.60;99.90;;;;;;4981704;28;20206;-64
2022/11/10 07:56:22;;;;;;;23.80;5.73;;;8.70;99.90;;;;;;4983548;28;20227;-64
2022/11/10 07:58:51;;;;;;;20.17;7.10;;;8.70;99.90;;;;;;4980939;28;20298;-64
2022/11/10 08:01:20;;;;;;;18.80;5.30;;;8.80;99.90;;;;;;5015478;28;20195;-64
2022/11/10 08:03:48;;;;;;;21.13;5.50;;;8.90;99.90;;;;;;4978230;28;20233;-64
2022/11/10 08:06:17;;;;;;;17.53;5.30;;;9.00;99.90;;;;;;4985218;28;20195;-64
2022/11/10 08:08:48;;;;;;;19.50;4.30;;;9.00;99.90;;;;;;5021127;28;20226;-64
2022/11/10 08:11:16;;;;;;;12.67;4.43;;;9.10;99.90;;;;;;4990832;28;20515;-64
2022/11/10 08:13:44;;;;;;;15.77;4.73;;;9.20;99.90;;;;;;4988880;28;20214;-64
2022/11/10 08:16:14;;;;;;;17.00;5.07;;;9.20;99.90;;;;;;4979284;28;20196;-64
2022/11/10 08:18:42;;;;;;;16.70;5.37;;;9.30;99.90;;;;;;4973298;28;20222;-64
2022/11/10 08:21:10;;;;;;;21.17;4.70;;;9.40;99.90;;;;;;4999836;28;20198;-64
2022/11/10 08:23:39;;;;;;;23.53;4.47;;;9.50;99.90;;;;;;4991219;28;20206;-64
2022/11/10 08:26:07;;;;;;;17.63;4.50;;;9.60;99.90;;;;;;4988423;28;20575;-64
2022/11/10 08:28:35;;;;;;;18.27;5.00;;;9.60;99.90;;;;;;4976294;28;20195;-64
2022/11/10 08:31:04;;;;;;;13.47;4.30;;;9.70;99.90;;;;;;4990737;28;20210;-64
2022/11/10 08:33:34;;;;;;;11.87;4.60;;;9.70;99.90;;;;;;5011074;28;20666;-64
2022/11/10 08:36:03;;;;;;;12.47;4.10;;;9.90;99.90;;;;;;4977869;28;20195;-64
2022/11/10 08:38:31;;;;;;;13.63;4.17;;;9.90;99.90;;;;;;4991205;28;20214;-64
2022/11/10 08:41:00;;;;;;;13.83;4.20;;;10.00;99.90;;;;;;4991319;28;20199;-64
2022/11/10 08:43:28;;;;;;;16.27;4.17;;;10.00;99.90;;;;;;4974407;28;20199;-64
2022/11/10 08:45:56;;;;;;;16.03;4.53;;;10.10;99.90;;;;;;4991100;28;20226;-64
2022/11/10 08:48:25;;;;;;;14.37;4.47;;;10.20;99.90;;;;;;4987425;28;20195;-64
2022/11/10 08:50:55;;;;;;;17.83;4.70;;;10.30;99.90;;;;;;4983975;28;20195;-64
2022/11/10 08:53:24;;;;;;;20.70;4.37;;;10.40;99.90;;;;;;4977541;28;20214;-64
2022/11/10 08:55:53;;;;;;;11.17;4.10;;;10.40;99.90;;;;;;4973650;28;20251;-64
2022/11/10 08:58:23;;;;;;;10.63;3.93;;;10.50;99.90;;;;;;4990632;28;20684;-64
2022/11/10 09:00:52;;;;;;;18.90;4.77;;;10.50;99.90;;;;;;4981850;28;20223;-64
2022/11/10 09:03:23;;;;;;;19.37;4.40;;;10.60;99.90;;;;;;4986234;28;20285;-64
2022/11/10 09:05:54;;;;;;;17.67;4.80;;;10.70;99.90;;;;;;4979523;28;20278;-64
2022/11/10 09:08:26;;;;;;;13.70;4.00;;;10.80;99.90;;;;;;4990709;28;20218;-64
2022/11/10 09:10:55;;;;;;;12.27;3.97;;;10.80;99.90;;;;;;4981363;28;20204;-64
2022/11/10 09:13:23;;;;;;;13.57;4.10;;;11.00;99.90;;;;;;4989536;28;20199;-64
2022/11/10 09:15:57;;;;;;;11.43;4.27;;;11.10;99.90;;;;;;4988796;28;20210;-64
2022/11/10 09:18:25;;;;;;;13.27;3.87;;;11.20;99.90;;;;;;4986176;28;20257;-64
2022/11/10 09:20:55;;;;;;;8.90;3.83;;;11.20;99.90;;;;;;5012902;28;20195;-64
2022/11/10 09:23:25;;;;;;;15.67;4.03;;;11.30;99.90;;;;;;4984247;28;20206;-65
2022/11/10 09:25:55;;;;;;;12.00;3.70;;;11.40;99.90;;;;;;5004578;28;20191;-64
2022/11/10 09:28:24;;;;;;;13.13;3.97;;;11.50;99.90;;;;;;5000888;28;20575;-64
2022/11/10 09:30:53;;;;;;;13.27;3.97;;;11.60;99.90;;;;;;4983822;28;20237;-64
2022/11/10 09:33:22;;;;;;;17.57;4.37;;;11.70;99.90;;;;;;4983644;28;20239;-64
2022/11/10 09:35:51;;;;;;;10.03;3.93;;;11.90;99.90;;;;;;4972297;28;20199;-64
2022/11/10 09:38:20;;;;;;;12.70;3.60;;;12.00;99.90;;;;;;5009443;28;20677;-64
2022/11/10 09:40:59;;;;;;;8.90;3.60;;;12.10;99.90;;;;;;4984450;28;20228;-65
2022/11/10 09:43:34;;;;;;;13.93;3.50;;;12.30;99.90;;;;;;4990250;28;20210;-64
2022/11/10 09:46:11;;;;;;;9.37;3.50;;;12.40;99.90;;;;;;5006064;28;20209;-65
2022/11/10 09:48:44;;;;;;;10.00;3.33;;;12.60;99.90;;;;;;4997162;28;20202;-65
2022/11/10 09:51:18;;;;;;;14.90;3.50;;;12.80;99.90;;;;;;4985128;28;20205;-65
2022/11/10 09:53:52;;;;;;;9.33;3.47;;;13.00;99.90;;;;;;4972537;28;20198;-65
2022/11/10 09:56:26;;;;;;;11.30;3.53;;;13.20;99.90;;;;;;4988325;28;20230;-65
2022/11/10 09:58:54;;;;;;;7.83;3.17;;;13.30;99.90;;;;;;4981745;28;20668;-65
2022/11/10 10:01:32;;;;;;;12.20;3.30;;;13.40;99.90;;;;;;4972872;28;20202;-65
2022/11/10 10:04:31;;;;;;;7.67;3.40;;;13.60;99.90;;;;;;4973334;28;20195;-65
2022/11/10 10:07:08;;;;;;;12.67;3.60;;;13.60;99.90;;;;;;4973800;28;20207;-65
2022/11/10 10:09:50;;;;;;;14.33;3.37;;;13.70;99.90;;;;;;4985626;28;20274;-65
2022/11/10 10:12:33;;;;;;;10.60;3.30;;;13.70;99.90;;;;;;4989774;28;20229;-65
2022/11/10 10:15:15;;;;;;;7.57;3.20;;;13.80;99.90;;;;;;4982794;28;20231;-65
2022/11/10 10:17:56;;;;;;;15.87;3.50;;;13.90;99.90;;;;;;4980590;28;20637;-65
2022/11/10 10:20:31;;;;;;;7.27;2.97;;;14.00;99.90;;;;;;4985318;28;20214;-65
2022/11/10 10:23:10;;;;;;;10.63;3.20;;;14.10;99.90;;;;;;4998420;28;20203;-65
2022/11/10 10:25:44;;;;;;;10.83;2.93;;;14.10;99.90;;;;;;4979040;28;20218;-65
2022/11/10 10:28:19;;;;;;;10.03;3.10;;;14.20;99.90;;;;;;4996514;28;20192;-65
2022/11/10 10:30:48;;;;;;;12.93;3.30;;;14.30;99.90;;;;;;4988298;28;20191;-65
2022/11/10 10:33:19;;;;;;;12.43;3.53;;;14.30;99.90;;;;;;4991504;28;20198;-65
2022/11/10 10:35:50;;;;;;;10.40;3.27;;;14.30;99.90;;;;;;4987640;28;20282;-65
2022/11/10 10:38:23;;;;;;;10.37;3.87;;;14.30;99.90;;;;;;4991419;28;20671;-65
2022/11/10 10:40:58;;;;;;;10.47;3.20;;;14.20;99.90;;;;;;5012611;28;20208;-65
2022/11/10 10:43:26;;;;;;;15.03;3.47;;;14.10;99.90;;;;;;4986926;28;20201;-65
2022/11/10 10:46:07;;;;;;;13.37;3.00;;;14.10;99.90;;;;;;4973975;28;20274;-65
2022/11/10 10:48:36;;;;;;;10.27;3.60;;;14.00;99.90;;;;;;4986295;28;20195;-64
2022/11/10 10:51:07;;;;;;;8.73;3.53;;;14.10;99.90;;;;;;4976908;28;20188;-65
2022/11/10 10:53:46;;;;;;;9.30;3.37;;;14.10;99.90;;;;;;4988719;28;20198;-65
2022/11/10 10:56:20;;;;;;;11.43;3.47;;;14.00;99.90;;;;;;4973372;28;20273;-65
2022/11/10 10:58:52;;;;;;;7.03;3.47;;;14.00;99.90;;;;;;4982525;28;20195;-65
2022/11/10 11:01:29;;;;;;;8.73;3.60;;;14.10;99.90;;;;;;4984301;28;20557;-65
2022/11/10 11:03:59;;;;;;;7.10;3.63;;;14.20;99.90;;;;;;4981376;28;20669;-65
2022/11/10 11:06:30;;;;;;;8.07;2.90;;;14.50;99.90;;;;;;4982660;28;20195;-65
2022/11/10 11:09:00;;;;;;;8.80;2.87;;;14.70;99.90;;;;;;4990441;28;20287;-65
2022/11/10 11:11:32;;;;;;;6.70;2.63;;;14.90;99.90;;;;;;5015756;28;20183;-65
2022/11/10 11:14:15;;;;;;;8.20;3.07;;;15.10;99.90;;;;;;4979901;28;20209;-65
2022/11/10 11:16:49;;;;;;;9.43;3.13;;;15.10;99.90;;;;;;5018352;28;20542;-65
2022/11/10 11:19:20;;;;;;;9.80;2.97;;;15.00;99.90;;;;;;4977774;28;20243;-65
2022/11/10 11:22:02;;;;;;;7.50;2.50;;;15.20;99.90;;;;;;4985352;28;20199;-65
2022/11/10 11:24:37;;;;;;;9.50;2.53;;;15.20;99.90;;;;;;4984016;28;20224;-65
2022/11/10 11:27:18;;;;;;;6.93;2.77;;;15.20;99.90;;;;;;4982496;28;20208;-65
2022/11/10 11:30:04;;;;;;;4.93;2.30;;;15.30;99.90;;;;;;4987429;28;20228;-64
2022/11/10 11:33:07;;;;;;;7.70;2.57;;;15.50;99.90;;;;;;4977313;28;20184;-65
2022/11/10 11:35:47;;;;;;;4.90;2.70;;;15.60;99.90;;;;;;4981550;28;20299;-65
2022/11/10 11:38:30;;;;;;;9.03;2.70;;;15.50;99.90;;;;;;4982217;28;20872;-65
2022/11/10 11:41:13;;;;;;;5.77;2.43;;;15.60;99.90;;;;;;4985961;28;20210;-65
2022/11/10 11:44:05;;;;;;;11.00;3.00;;;15.60;99.90;;;;;;4989946;28;20195;-65
2022/11/10 11:46:43;;;;;;;10.47;2.67;;;15.70;99.90;;;;;;4980806;28;20206;-65
2022/11/10 11:49:49;;;;;;;8.20;3.10;;;15.60;99.90;;;;;;4975174;28;20700;-65
2022/11/10 11:52:27;;;;;;;12.20;2.53;;;15.40;99.90;;;;;;4986730;28;20206;-64
2022/11/10 11:55:15;;;;;;;8.20;2.70;;;15.30;99.90;;;;;;4976669;28;20223;-65
2022/11/10 11:57:58;;;;;;;8.77;2.33;;;15.40;99.90;;;;;;4976227;28;20203;-65
2022/11/10 12:00:35;;;;;;;8.53;2.40;;;15.40;99.90;;;;;;4976276;28;20230;-65
2022/11/10 12:03:30;;;;;;;8.43;2.43;;;15.50;99.90;;;;;;5013621;28;20205;-65
2022/11/10 12:06:28;;;;;;;7.67;2.80;;;15.70;99.90;;;;;;4987334;28;20195;-65
2022/11/10 12:09:02;;;;;;;8.03;2.27;;;16.00;99.90;;;;;;4980322;28;20584;-65
2022/11/10 12:11:44;;;;;;;6.87;2.30;;;16.20;99.90;;;;;;4978418;28;20195;-65
2022/11/10 12:14:19;;;;;;;6.30;2.47;;;16.20;99.90;;;;;;4985911;28;20205;-65
2022/11/10 12:17:05;;;;;;;3.63;2.10;;;16.10;99.90;;;;;;4986076;28;20206;-65
2022/11/10 12:19:40;;;;;;;6.27;2.43;;;16.20;99.90;;;;;;4978394;28;20245;-65
2022/11/10 12:22:17;;;;;;;4.07;2.07;;;16.40;99.90;;;;;;4975963;28;20202;-65
2022/11/10 12:24:58;;;;;;;4.30;2.27;;;16.20;99.90;;;;;;5018535;28;20582;-65
2022/11/10 12:27:32;;;;;;;6.33;2.60;;;16.10;99.90;;;;;;4986892;28;20583;-65
2022/11/10 12:30:04;;;;;;;6.37;2.03;;;16.00;99.90;;;;;;4984862;28;20513;-65
2022/11/10 12:32:40;;;;;;;8.50;2.13;;;16.10;99.90;;;;;;4978790;28;20202;-65
2022/11/10 12:35:15;;;;;;;2.77;1.77;;;16.30;99.90;;;;;;4979657;28;20203;-65
2022/11/10 12:37:47;;;;;;;8.17;2.40;;;16.30;99.90;;;;;;4981623;28;20193;-65
2022/11/10 12:40:19;;;;;;;4.20;1.93;;;16.40;99.90;;;;;;4990009;28;20210;-65
2022/11/10 12:42:54;;;;;;;7.50;2.50;;;16.40;99.90;;;;;;4990235;28;20187;-65
2022/11/10 12:45:27;;;;;;;6.97;2.10;;;16.50;99.90;;;;;;4976192;28;20191;-65
2022/11/10 12:47:57;;;;;;;7.43;2.10;;;16.50;99.90;;;;;;4977874;28;20191;-65
2022/11/10 12:50:40;;;;;;;5.43;2.30;;;16.50;99.90;;;;;;4972485;28;20578;-65
2022/11/10 12:53:15;;;;;;;8.20;2.00;;;16.30;99.90;;;;;;4977179;28;20284;-65
2022/11/10 12:55:47;;;;;;;6.93;2.33;;;16.20;99.90;;;;;;4981100;28;20714;-65
2022/11/10 12:58:16;;;;;;;5.67;2.37;;;16.20;99.90;;;;;;4991107;28;20193;-65
2022/11/10 13:00:46;;;;;;;9.13;2.70;;;16.20;99.90;;;;;;5012578;28;20668;-65
2022/11/10 13:03:26;;;;;;;5.90;2.30;;;16.10;99.90;;;;;;4983026;28;20194;-65
2022/11/10 13:05:56;;;;;;;4.70;2.20;;;16.20;99.90;;;;;;4984310;28;20237;-65
2022/11/10 13:08:32;;;;;;;8.70;2.33;;;16.10;99.90;;;;;;4982717;28;20200;-65
2022/11/10 13:11:05;;;;;;;6.57;2.20;;;16.10;99.90;;;;;;4984460;28;20198;-65
2022/11/10 13:13:42;;;;;;;6.70;2.20;;;16.00;99.90;;;;;;5007601;28;20196;-65
2022/11/10 13:16:10;;;;;;;2.67;1.70;;;16.10;99.90;;;;;;4976846;28;20229;-65
2022/11/10 13:18:57;;;;;;;7.20;2.17;;;16.10;99.90;;;;;;4992170;28;20245;-65
2022/11/10 13:22:27;;;;;;;5.77;1.90;;;16.10;99.90;;;;;;4977096;28;20205;-65
2022/11/10 13:25:29;;;;;;;6.53;2.20;;;16.00;99.90;;;;;;4934157;28;20232;-65
2022/11/10 13:27:57;;;;;;;3.90;1.60;;;16.00;99.90;;;;;;4973298;28;20201;-65
2022/11/10 13:30:37;;;;;;;7.00;2.10;;;15.90;99.90;;;;;;4985596;28;20215;-65
2022/11/10 13:33:35;;;;;;;4.17;2.23;;;15.90;99.90;;;;;;4987042;28;20209;-65